Time;durP1;ratioP1;P1;durP2;ratioP2;P2;SDS_P1;SDS_P2;PMS_P1;PMS_P2;Temp;Humidity;BMP_temperature;BMP_pressure;BME280_temperature;BME280_humidity;BME280_pressure;Samples;Min_cycle;Max_cycle;Signal;HPM_P1;HPM_P2
2021/06/06 00:03:08;;;;;;;16.63;14.10;;;22.10;66.90;;;;;;10419400;28;20041;-62
2021/06/06 00:08:08;;;;;;;14.45;12.73;;;22.10;66.80;;;;;;10419735;28;20032;-62
2021/06/06 00:13:09;;;;;;;14.32;12.85;;;22.10;66.80;;;;;;10419358;28;20113;-62
2021/06/06 00:18:11;;;;;;;15.43;13.50;;;22.10;66.80;;;;;;10419021;28;20112;-62
2021/06/06 00:23:12;;;;;;;14.45;12.95;;;22.10;66.80;;;;;;10418737;28;20035;-62
2021/06/06 00:28:13;;;;;;;15.13;12.93;;;22.10;66.80;;;;;;10419038;28;20492;-62
2021/06/06 00:33:14;;;;;;;15.10;13.48;;;22.00;66.70;;;;;;10418093;28;20040;-62
2021/06/06 00:38:15;;;;;;;12.85;11.48;;;22.10;66.70;;;;;;10405121;28;20454;-61
2021/06/06 00:43:16;;;;;;;16.20;12.82;;;22.00;66.70;;;;;;10424362;28;20413;-60
2021/06/06 00:48:17;;;;;;;13.73;12.23;;;22.00;66.70;;;;;;10417048;28;20052;-63
2021/06/06 00:53:53;;;;;;;13.77;11.75;;;22.00;66.60;;;;;;10417574;28;20041;-62
2021/06/06 00:58:58;;;;;;;13.45;12.05;;;22.00;66.70;;;;;;10413393;28;20049;-62
2021/06/06 01:04:00;;;;;;;13.45;11.75;;;22.00;66.70;;;;;;10417187;28;20030;-62
2021/06/06 01:09:05;;;;;;;15.07;12.15;;;22.00;66.70;;;;;;10399757;28;20048;-60
2021/06/06 01:14:13;;;;;;;13.63;11.75;;;22.00;66.60;;;;;;10416808;28;20492;-62
2021/06/06 01:19:32;;;;;;;12.73;11.43;;;22.00;66.60;;;;;;10415749;28;20021;-62
2021/06/06 01:24:50;;;;;;;12.10;10.90;;;22.00;66.70;;;;;;10415294;28;20033;-61
2021/06/06 01:30:04;;;;;;;11.90;10.70;;;21.90;66.60;;;;;;10415230;28;20080;-62
2021/06/06 01:35:30;;;;;;;14.05;10.63;;;22.00;66.60;;;;;;10415354;28;20079;-62
2021/06/06 01:40:35;;;;;;;15.48;12.25;;;22.00;66.60;;;;;;10414376;28;20046;-61
2021/06/06 01:45:53;;;;;;;12.45;10.48;;;21.90;66.60;;;;;;10421507;28;20034;-62
2021/06/06 01:51:01;;;;;;;12.80;10.88;;;21.90;66.50;;;;;;10414654;28;20454;-65
2021/06/06 01:56:06;;;;;;;13.00;11.02;;;21.90;66.50;;;;;;10414220;28;20401;-65
2021/06/06 02:01:20;;;;;;;11.20;10.00;;;21.90;66.50;;;;;;10430004;28;20120;-65
2021/06/06 02:06:34;;;;;;;11.57;10.32;;;21.90;66.50;;;;;;10413864;28;20032;-65
2021/06/06 02:12:04;;;;;;;13.43;11.75;;;21.90;66.50;;;;;;10413999;28;20030;-64
2021/06/06 02:17:12;;;;;;;11.85;10.55;;;21.90;66.50;;;;;;10413749;28;20053;-64
2021/06/06 02:22:16;;;;;;;11.63;9.70;;;21.90;66.50;;;;;;10414316;28;20068;-65
2021/06/06 02:27:29;;;;;;;12.60;11.27;;;21.90;66.40;;;;;;10413479;28;20038;-64
2021/06/06 02:32:40;;;;;;;11.10;9.93;;;21.80;66.40;;;;;;10413996;28;20033;-64
2021/06/06 02:37:54;;;;;;;11.13;9.73;;;21.80;66.40;;;;;;10399972;28;20113;-64
2021/06/06 02:43:00;;;;;;;13.18;11.10;;;21.80;66.40;;;;;;10420629;28;20077;-64
2021/06/06 02:48:36;;;;;;;12.20;9.23;;;21.80;66.40;;;;;;10414312;28;20027;-64
2021/06/06 02:54:06;;;;;;;13.38;10.27;;;21.80;66.40;;;;;;10419327;28;20053;-64
2021/06/06 02:59:12;;;;;;;11.93;10.70;;;21.80;66.40;;;;;;10421190;28;20389;-64
2021/06/06 03:04:18;;;;;;;11.35;10.07;;;21.80;66.30;;;;;;10420735;28;20060;-64
2021/06/06 03:09:20;;;;;;;13.88;10.82;;;21.80;66.30;;;;;;10420623;28;20032;-64
2021/06/06 03:14:25;;;;;;;12.85;11.52;;;21.80;66.40;;;;;;10421792;28;20379;-64
2021/06/06 03:19:32;;;;;;;12.45;11.07;;;21.80;66.40;;;;;;10420479;28;20108;-65
2021/06/06 03:24:40;;;;;;;14.32;12.30;;;21.80;66.40;;;;;;10420207;28;20482;-64
2021/06/06 03:30:28;;;;;;;13.35;11.15;;;21.80;66.30;;;;;;10420682;28;20033;-64
2021/06/06 03:35:28;;;;;;;12.95;10.38;;;21.70;66.30;;;;;;10408664;28;20041;-64
2021/06/06 03:40:38;;;;;;;14.70;11.40;;;21.70;66.30;;;;;;10402364;28;20046;-64
2021/06/06 03:45:39;;;;;;;14.13;11.77;;;21.80;66.30;;;;;;10413617;28;20041;-64
2021/06/06 03:50:42;;;;;;;14.77;11.77;;;21.70;66.20;;;;;;10412901;28;20029;-65
2021/06/06 03:55:42;;;;;;;13.05;10.52;;;21.70;66.20;;;;;;10408557;28;20034;-64
2021/06/06 04:00:47;;;;;;;14.05;11.70;;;21.80;66.20;;;;;;10409643;28;20045;-64
2021/06/06 04:05:49;;;;;;;12.55;10.70;;;21.70;66.30;;;;;;10411173;28;20044;-63
2021/06/06 04:10:51;;;;;;;12.52;10.75;;;21.70;66.30;;;;;;10410553;28;20401;-64
2021/06/06 04:15:52;;;;;;;12.73;11.23;;;21.70;66.20;;;;;;10412727;28;20040;-64
2021/06/06 04:20:55;;;;;;;13.82;10.32;;;21.70;66.20;;;;;;10411910;28;20043;-64
2021/06/06 04:25:55;;;;;;;11.63;10.07;;;21.70;66.20;;;;;;10411448;28;20044;-63
2021/06/06 04:30:56;;;;;;;11.48;10.15;;;21.70;66.20;;;;;;10411067;28;20040;-64
2021/06/06 04:35:57;;;;;;;12.02;10.48;;;21.60;66.20;;;;;;10402710;28;20037;-63
2021/06/06 04:41:04;;;;;;;11.82;10.32;;;21.70;66.20;;;;;;10412985;28;20041;-64
2021/06/06 04:46:06;;;;;;;12.77;10.80;;;21.60;66.20;;;;;;10412873;28;20042;-64
2021/06/06 04:51:19;;;;;;;10.45;9.35;;;21.60;66.20;;;;;;10411079;28;20120;-64
2021/06/06 04:56:23;;;;;;;12.82;9.75;;;21.60;66.10;;;;;;10399084;28;20443;-65
2021/06/06 05:01:25;;;;;;;12.15;9.68;;;21.60;66.10;;;;;;10417546;28;20041;-65
2021/06/06 05:06:25;;;;;;;12.43;9.85;;;21.60;66.20;;;;;;10417336;28;20029;-63
2021/06/06 05:11:27;;;;;;;15.00;10.10;;;21.60;66.50;;;;;;10416052;28;20037;-59
2021/06/06 05:16:27;;;;;;;12.68;10.05;;;21.60;67.60;;;;;;10416932;28;20074;-63
2021/06/06 05:21:29;;;;;;;16.33;9.73;;;21.70;67.40;;;;;;10416629;28;20115;-59
2021/06/06 05:26:30;;;;;;;20.30;10.60;;;21.70;67.80;;;;;;10415340;28;20017;-61
2021/06/06 05:31:30;;;;;;;12.63;9.85;;;21.70;68.00;;;;;;10415107;28;20033;-60
2021/06/06 05:36:31;;;;;;;16.52;10.27;;;21.70;67.80;;;;;;10402940;28;20025;-65
2021/06/06 05:41:32;;;;;;;12.75;9.10;;;21.70;67.40;;;;;;10419898;28;20408;-66
2021/06/06 05:46:34;;;;;;;18.48;10.43;;;21.70;67.50;;;;;;10415960;28;20481;-65
2021/06/06 05:51:35;;;;;;;13.75;10.13;;;21.70;67.50;;;;;;10414741;28;20029;-65
2021/06/06 05:56:35;;;;;;;12.23;9.05;;;21.70;67.40;;;;;;10414810;28;20059;-65
2021/06/06 06:01:36;;;;;;;14.02;9.40;;;21.70;67.40;;;;;;10414832;28;20041;-62
2021/06/06 06:06:37;;;;;;;14.45;9.10;;;21.70;67.20;;;;;;10415208;28;20506;-63
2021/06/06 06:11:38;;;;;;;16.95;10.15;;;21.60;67.60;;;;;;10414810;28;20039;-65
2021/06/06 06:16:39;;;;;;;13.73;9.18;;;21.60;67.90;;;;;;10414722;28;20115;-65
2021/06/06 06:21:41;;;;;;;12.45;9.57;;;21.60;67.10;;;;;;10413326;28;20025;-66
2021/06/06 06:26:42;;;;;;;12.05;9.43;;;21.60;67.00;;;;;;10396386;28;20021;-66
2021/06/06 06:31:43;;;;;;;23.45;9.05;;;21.60;67.00;;;;;;10411722;28;20033;-65
2021/06/06 06:36:46;;;;;;;15.15;9.85;;;21.60;66.80;;;;;;10410829;28;20071;-66
2021/06/06 06:41:47;;;;;;;14.25;10.20;;;21.60;66.80;;;;;;10418061;28;20045;-66
2021/06/06 06:46:48;;;;;;;11.93;9.63;;;21.60;66.80;;;;;;10412668;28;20053;-66
2021/06/06 06:51:49;;;;;;;12.65;9.60;;;21.60;66.80;;;;;;10414191;28;20428;-66
2021/06/06 06:56:49;;;;;;;10.98;9.43;;;21.60;66.90;;;;;;10412528;28;20091;-66
2021/06/06 07:01:50;;;;;;;13.95;9.13;;;21.60;66.80;;;;;;10413772;28;20038;-67
2021/06/06 07:06:53;;;;;;;13.80;8.93;;;21.60;66.80;;;;;;10413871;28;20551;-66
2021/06/06 07:11:56;;;;;;;9.50;8.48;;;21.60;66.80;;;;;;10413661;28;20033;-66
2021/06/06 07:16:57;;;;;;;11.07;8.75;;;21.60;66.80;;;;;;10413744;28;20057;-66
2021/06/06 07:21:58;;;;;;;10.05;8.27;;;21.50;66.70;;;;;;10412550;28;20022;-67
2021/06/06 07:26:58;;;;;;;9.75;8.27;;;21.50;66.70;;;;;;10413313;28;20092;-67
2021/06/06 07:32:01;;;;;;;10.50;9.05;;;21.50;66.70;;;;;;10412385;28;20112;-60
2021/06/06 07:37:06;;;;;;;10.90;8.43;;;21.50;66.80;;;;;;10417271;28;20398;-67
2021/06/06 07:42:10;;;;;;;14.55;9.43;;;21.50;67.20;;;;;;10424391;28;20616;-60
2021/06/06 07:47:10;;;;;;;11.15;8.05;;;21.50;67.20;;;;;;10420505;28;20029;-66
2021/06/06 07:52:11;;;;;;;13.50;8.57;;;21.50;67.30;;;;;;10419311;28;20460;-66
2021/06/06 07:57:12;;;;;;;17.65;7.90;;;21.50;66.30;;;;;;10419902;28;20393;-65
2021/06/06 08:02:14;;;;;;;8.10;6.43;;;21.60;66.90;;;;;;10419849;28;20038;-69
2021/06/06 08:07:15;;;;;;;28.92;8.07;;;21.60;66.90;;;;;;10419644;28;20424;-71
2021/06/06 08:12:16;;;;;;;15.00;8.23;;;21.60;67.10;;;;;;10418556;28;20032;-62
2021/06/06 08:17:17;;;;;;;14.35;7.15;;;21.60;66.90;;;;;;10418058;28;20505;-68
2021/06/06 08:22:18;;;;;;;13.50;7.97;;;21.60;67.00;;;;;;10418411;28;20030;-67
2021/06/06 08:27:18;;;;;;;18.13;8.35;;;21.60;67.30;;;;;;10417740;28;20033;-62
2021/06/06 08:32:19;;;;;;;14.25;7.05;;;21.60;67.30;;;;;;10433203;28;20080;-61
2021/06/06 08:37:20;;;;;;;14.98;8.13;;;21.60;67.40;;;;;;10418290;28;20474;-60
2021/06/06 08:42:30;;;;;;;15.00;8.10;;;21.60;67.30;;;;;;10423128;28;20047;-67
2021/06/06 08:47:36;;;;;;;14.35;7.82;;;21.60;67.30;;;;;;10416598;28;20025;-65
2021/06/06 08:53:00;;;;;;;14.35;6.82;;;21.60;67.30;;;;;;10417827;28;20095;-66
2021/06/06 08:58:34;;;;;;;19.95;7.35;;;21.60;67.40;;;;;;10417082;28;20033;-66
2021/06/06 09:03:34;;;;;;;20.88;7.60;;;21.60;67.40;;;;;;10415350;28;20029;-58
2021/06/06 09:08:38;;;;;;;30.02;8.05;;;21.60;67.50;;;;;;10413795;28;20049;-68
2021/06/06 09:13:39;;;;;;;22.25;9.82;;;21.60;68.00;;;;;;10415361;28;20033;-66
2021/06/06 09:18:45;;;;;;;27.70;9.48;;;21.60;68.40;;;;;;10415811;28;20466;-71
2021/06/06 09:23:51;;;;;;;23.20;9.40;;;21.70;68.30;;;;;;10415695;28;20048;-65
2021/06/06 09:29:15;;;;;;;18.67;8.98;;;21.80;68.20;;;;;;10415526;28;20108;-65
2021/06/06 09:34:24;;;;;;;18.73;8.43;;;21.80;67.80;;;;;;10410243;28;20034;-61
2021/06/06 09:39:25;;;;;;;16.38;8.43;;;21.80;67.70;;;;;;10425261;28;20422;-59
2021/06/06 09:44:33;;;;;;;16.23;8.63;;;21.90;67.90;;;;;;10422645;28;20031;-59
2021/06/06 09:49:44;;;;;;;18.17;8.02;;;21.90;68.10;;;;;;10415797;28;20025;-61
2021/06/06 09:54:52;;;;;;;14.35;9.00;;;22.00;68.20;;;;;;10413891;28;20149;-64
2021/06/06 10:00:50;;;;;;;20.30;8.85;;;22.00;68.80;;;;;;10396725;28;20052;-59
2021/06/06 10:05:54;;;;;;;23.85;10.52;;;22.10;69.50;;;;;;10411281;28;20378;-62
2021/06/06 10:11:13;;;;;;;18.85;9.48;;;22.20;71.70;;;;;;10415126;28;20029;-60
2021/06/06 10:16:20;;;;;;;19.88;9.38;;;22.20;70.30;;;;;;10414552;28;20067;-61
2021/06/06 10:21:34;;;;;;;18.40;9.02;;;22.20;70.00;;;;;;10414217;28;20025;-61
2021/06/06 10:26:52;;;;;;;18.20;9.43;;;22.20;69.50;;;;;;10411183;28;20048;-61
2021/06/06 10:32:06;;;;;;;15.93;8.75;;;22.20;69.20;;;;;;10413096;28;20044;-62
2021/06/06 10:37:10;;;;;;;14.77;8.43;;;22.20;69.10;;;;;;10413430;28;20037;-62
2021/06/06 10:42:24;;;;;;;10.90;8.02;;;22.20;68.90;;;;;;10419806;28;20046;-61
2021/06/06 10:47:50;;;;;;;14.73;8.45;;;22.20;68.80;;;;;;10412894;28;20045;-62
2021/06/06 10:53:05;;;;;;;12.77;7.88;;;22.20;68.70;;;;;;10414063;28;20033;-62
2021/06/06 10:58:19;;;;;;;10.68;7.80;;;22.20;68.60;;;;;;10412674;28;20034;-62
2021/06/06 11:03:29;;;;;;;12.50;7.82;;;22.10;68.40;;;;;;10413475;28;20060;-61
2021/06/06 11:08:31;;;;;;;14.35;7.80;;;22.10;69.00;;;;;;10408661;28;20030;-62
2021/06/06 11:13:49;;;;;;;15.07;8.23;;;22.10;68.30;;;;;;10421830;28;20365;-62
2021/06/06 11:19:19;;;;;;;12.63;7.68;;;22.10;68.20;;;;;;10421400;28;20052;-61
2021/06/06 11:24:32;;;;;;;12.07;7.22;;;22.10;68.10;;;;;;10404976;28;20042;-61
2021/06/06 11:30:01;;;;;;;10.25;7.32;;;22.10;68.10;;;;;;10421356;28;20022;-61
2021/06/06 11:35:48;;;;;;;8.30;7.10;;;22.10;68.00;;;;;;10420935;28;20044;-62
2021/06/06 11:40:52;;;;;;;10.23;8.30;;;22.00;68.00;;;;;;10420297;28;20049;-61
2021/06/06 11:45:55;;;;;;;8.95;7.50;;;22.00;67.90;;;;;;10424195;28;20071;-62
2021/06/06 11:50:58;;;;;;;8.40;7.57;;;22.00;67.90;;;;;;10419526;28;20401;-62
2021/06/06 11:56:36;;;;;;;10.88;7.18;;;22.00;67.80;;;;;;10419131;28;20454;-62
2021/06/06 12:01:57;;;;;;;8.02;7.22;;;22.00;67.70;;;;;;10419873;28;20486;-62
2021/06/06 12:07:04;;;;;;;9.23;7.53;;;22.00;67.70;;;;;;10419894;28;20566;-61
2021/06/06 12:12:26;;;;;;;9.70;7.35;;;22.00;68.20;;;;;;10419520;28;20036;-61
2021/06/06 12:17:27;;;;;;;10.80;7.95;;;22.00;67.50;;;;;;10418952;28;20029;-62
2021/06/06 12:22:39;;;;;;;9.25;8.10;;;22.00;67.40;;;;;;10418152;28;20033;-61
2021/06/06 12:28:03;;;;;;;13.48;7.43;;;22.00;67.60;;;;;;10417179;28;20037;-59
2021/06/06 12:33:42;;;;;;;11.82;8.18;;;22.00;68.00;;;;;;10418692;28;20447;-62
2021/06/06 12:38:44;;;;;;;11.55;8.13;;;22.00;68.60;;;;;;10417577;28;20059;-60
2021/06/06 12:43:55;;;;;;;20.52;8.55;;;22.10;69.40;;;;;;10416892;28;20048;-60
2021/06/06 12:49:07;;;;;;;9.95;7.28;;;22.10;68.70;;;;;;10414215;28;20028;-59
2021/06/06 12:54:18;;;;;;;11.20;6.60;;;22.10;68.30;;;;;;10417335;28;20064;-61
2021/06/06 12:59:27;;;;;;;11.13;7.20;;;22.00;68.20;;;;;;10418968;28;20033;-60
2021/06/06 13:04:28;;;;;;;11.07;6.90;;;22.00;68.40;;;;;;10417386;28;20410;-57
2021/06/06 13:09:47;;;;;;;12.15;7.30;;;22.00;68.50;;;;;;10417055;28;20041;-57
2021/06/06 13:15:32;;;;;;;9.35;6.55;;;22.00;68.50;;;;;;10417174;28;20448;-61
2021/06/06 13:20:47;;;;;;;12.07;7.35;;;22.00;68.50;;;;;;10398768;28;20053;-62
2021/06/06 13:25:50;;;;;;;12.23;7.95;;;22.00;68.50;;;;;;10415599;28;20026;-62
2021/06/06 13:30:56;;;;;;;10.45;7.13;;;22.10;68.50;;;;;;10416276;28;20415;-62
2021/06/06 13:35:57;;;;;;;10.32;7.07;;;22.10;68.10;;;;;;10414732;28;20029;-62
2021/06/06 13:40:58;;;;;;;11.15;6.38;;;22.10;68.00;;;;;;10418337;28;20110;-62
2021/06/06 13:45:59;;;;;;;9.45;6.78;;;22.10;67.80;;;;;;10420071;28;20030;-62
2021/06/06 13:51:02;;;;;;;7.80;6.18;;;22.10;67.60;;;;;;10415407;28;20036;-63
2021/06/06 13:56:04;;;;;;;13.40;6.70;;;22.20;67.50;;;;;;10415538;28;20030;-62
2021/06/06 14:01:05;;;;;;;9.50;6.80;;;22.20;67.20;;;;;;10413969;28;20535;-62
2021/06/06 14:06:10;;;;;;;8.60;6.55;;;22.10;67.10;;;;;;10402793;28;20030;-62
2021/06/06 14:11:17;;;;;;;7.47;6.35;;;22.10;67.00;;;;;;10415297;28;20021;-59
2021/06/06 14:16:23;;;;;;;9.05;7.03;;;22.10;66.90;;;;;;10413715;28;20068;-61
2021/06/06 14:21:30;;;;;;;7.47;6.68;;;22.10;66.80;;;;;;10415190;28;20537;-61
2021/06/06 14:26:35;;;;;;;7.90;6.13;;;22.10;66.80;;;;;;10414742;28;20026;-62
2021/06/06 14:31:37;;;;;;;7.80;6.40;;;22.10;66.80;;;;;;10413041;28;20037;-59
2021/06/06 14:36:39;;;;;;;7.45;6.68;;;22.10;67.20;;;;;;10414394;28;20112;-59
2021/06/06 14:41:42;;;;;;;8.32;7.40;;;22.10;66.70;;;;;;10420732;28;20505;-59
2021/06/06 14:46:43;;;;;;;6.88;5.60;;;22.10;66.70;;;;;;10426712;28;20021;-60
2021/06/06 14:51:44;;;;;;;7.30;6.43;;;22.10;66.60;;;;;;10427710;28;20057;-60
2021/06/06 14:56:47;;;;;;;10.10;6.80;;;22.10;66.70;;;;;;10427750;28;20397;-61
2021/06/06 15:01:48;;;;;;;11.43;6.00;;;22.10;67.20;;;;;;10427357;28;20034;-61
2021/06/06 15:06:49;;;;;;;6.80;5.68;;;22.10;66.70;;;;;;10427556;28;20097;-61
2021/06/06 15:11:51;;;;;;;8.32;7.13;;;22.10;66.60;;;;;;10427512;28;20391;-61
2021/06/06 15:16:52;;;;;;;7.80;6.05;;;22.10;66.70;;;;;;10426258;28;20029;-60
2021/06/06 15:21:53;;;;;;;10.70;6.43;;;22.10;66.50;;;;;;10426887;28;20128;-61
2021/06/06 15:26:53;;;;;;;8.32;6.28;;;22.10;66.50;;;;;;10442677;28;20120;-61
2021/06/06 15:31:54;;;;;;;9.05;6.13;;;22.10;66.40;;;;;;10426779;28;20065;-61
2021/06/06 15:36:55;;;;;;;15.85;7.15;;;22.10;66.40;;;;;;10423273;28;20033;-62
2021/06/06 15:41:56;;;;;;;11.73;6.75;;;22.10;66.70;;;;;;10432639;28;20068;-60
2021/06/06 15:46:56;;;;;;;14.18;6.47;;;22.10;66.70;;;;;;10426957;28;20111;-61
2021/06/06 15:52:01;;;;;;;15.38;6.93;;;22.20;67.00;;;;;;10426688;28;20139;-61
2021/06/06 15:57:06;;;;;;;20.75;6.82;;;22.20;67.40;;;;;;10421528;28;20026;-60
2021/06/06 16:02:11;;;;;;;24.35;7.85;;;22.40;67.40;;;;;;10419795;28;20043;-59
2021/06/06 16:07:11;;;;;;;13.15;6.93;;;22.40;66.60;;;;;;10418769;28;20032;-60
2021/06/06 16:12:12;;;;;;;18.35;6.88;;;22.40;66.60;;;;;;10419967;28;20030;-59
2021/06/06 16:17:13;;;;;;;14.80;6.20;;;22.50;66.30;;;;;;10419309;28;20391;-59
2021/06/06 16:22:13;;;;;;;13.05;6.40;;;22.60;65.90;;;;;;10419031;28;20347;-60
2021/06/06 16:27:14;;;;;;;10.32;6.40;;;22.60;65.60;;;;;;10418784;28;20117;-59
2021/06/06 16:32:15;;;;;;;8.38;5.82;;;22.60;64.90;;;;;;10418237;28;20403;-56
2021/06/06 16:37:16;;;;;;;10.15;5.45;;;22.50;64.80;;;;;;10417250;28;20101;-55
2021/06/06 16:42:17;;;;;;;9.20;5.43;;;22.50;64.80;;;;;;10424650;28;20495;-59
2021/06/06 16:47:17;;;;;;;9.35;5.45;;;22.40;64.50;;;;;;10418238;28;20136;-59
2021/06/06 16:52:19;;;;;;;8.40;5.65;;;22.40;63.80;;;;;;10418159;28;20030;-57
2021/06/06 16:57:21;;;;;;;9.82;5.47;;;22.40;64.10;;;;;;10417971;28;20037;-59
2021/06/06 17:02:24;;;;;;;6.05;4.50;;;22.40;64.40;;;;;;10417517;28;20030;-60
2021/06/06 17:07:25;;;;;;;7.93;5.15;;;22.30;63.50;;;;;;10416582;28;20036;-59
2021/06/06 17:12:26;;;;;;;11.43;5.28;;;22.30;63.80;;;;;;10416222;28;20052;-58
2021/06/06 17:17:26;;;;;;;10.25;4.85;;;22.30;64.20;;;;;;10417407;28;20036;-59
2021/06/06 17:22:27;;;;;;;9.27;5.03;;;22.30;63.70;;;;;;10416713;28;20037;-59
2021/06/06 17:27:28;;;;;;;8.95;4.72;;;22.30;63.60;;;;;;10416270;28;20076;-58
2021/06/06 17:32:28;;;;;;;9.18;4.60;;;22.30;63.50;;;;;;10415740;28;20038;-61
2021/06/06 17:37:29;;;;;;;9.18;4.35;;;22.30;63.60;;;;;;10409094;28;20029;-60
2021/06/06 17:42:30;;;;;;;11.32;4.47;;;22.30;63.50;;;;;;10416727;28;20045;-59
2021/06/06 17:47:30;;;;;;;8.10;4.25;;;22.30;63.10;;;;;;10415803;28;20071;-61
2021/06/06 17:52:31;;;;;;;5.38;3.72;;;22.30;62.90;;;;;;10415635;28;20037;-60
2021/06/06 17:57:32;;;;;;;8.98;4.38;;;22.30;63.10;;;;;;10414017;28;20029;-61
2021/06/06 18:02:32;;;;;;;8.90;3.72;;;22.30;63.40;;;;;;10414878;28;20041;-62
2021/06/06 18:07:33;;;;;;;8.85;4.13;;;22.30;63.40;;;;;;10413519;28;20026;-59
2021/06/06 18:12:35;;;;;;;7.10;3.50;;;22.30;63.50;;;;;;10413094;28;20064;-61
2021/06/06 18:17:36;;;;;;;8.30;4.13;;;22.30;63.20;;;;;;10414538;28;20109;-60
2021/06/06 18:22:37;;;;;;;9.70;3.72;;;22.30;62.90;;;;;;10414539;28;20037;-60
2021/06/06 18:27:38;;;;;;;6.47;3.47;;;22.30;63.00;;;;;;10413916;28;20030;-60
2021/06/06 18:32:40;;;;;;;5.88;4.00;;;22.30;63.20;;;;;;10401848;28;20029;-61
2021/06/06 18:37:41;;;;;;;5.03;3.10;;;22.20;63.10;;;;;;10413383;28;20571;-61
2021/06/06 18:42:45;;;;;;;5.00;3.65;;;22.20;63.20;;;;;;10426082;28;20074;-60
2021/06/06 18:47:46;;;;;;;4.57;3.80;;;22.20;62.90;;;;;;10414164;28;20033;-60
2021/06/06 18:52:47;;;;;;;5.20;4.13;;;22.20;63.10;;;;;;10414079;28;20038;-61
2021/06/06 18:57:48;;;;;;;7.95;3.60;;;22.20;63.50;;;;;;10413952;28;20057;-61
2021/06/06 19:02:49;;;;;;;5.45;3.65;;;22.20;63.60;;;;;;10413949;28;20052;-60
2021/06/06 19:07:51;;;;;;;7.60;3.40;;;22.20;63.80;;;;;;10413645;28;20053;-60
2021/06/06 19:12:53;;;;;;;3.95;3.30;;;22.20;63.90;;;;;;10412981;28;20087;-60
2021/06/06 19:17:54;;;;;;;5.43;3.63;;;22.20;63.50;;;;;;10412852;28;20064;-60
2021/06/06 19:22:56;;;;;;;3.75;3.13;;;22.20;63.60;;;;;;10413072;28;20046;-60
2021/06/06 19:27:57;;;;;;;6.22;3.80;;;22.20;63.80;;;;;;10412364;28;20030;-61
2021/06/06 19:32:59;;;;;;;6.38;3.88;;;22.10;63.80;;;;;;10418770;28;20112;-61
2021/06/06 19:38:03;;;;;;;5.50;4.10;;;22.20;64.00;;;;;;10419933;28;20083;-58
2021/06/06 19:43:06;;;;;;;7.15;3.58;;;22.20;63.90;;;;;;10418837;28;20042;-61
2021/06/06 19:48:07;;;;;;;5.93;3.72;;;22.20;63.80;;;;;;10420119;28;20119;-61
2021/06/06 19:53:09;;;;;;;5.63;3.70;;;22.20;63.60;;;;;;10416698;28;20389;-61
2021/06/06 19:58:10;;;;;;;4.60;3.38;;;22.20;63.60;;;;;;10417884;28;20117;-61
2021/06/06 20:03:15;;;;;;;6.38;3.63;;;22.10;63.70;;;;;;10419335;28;20042;-61
2021/06/06 20:08:22;;;;;;;8.73;3.75;;;22.10;63.70;;;;;;10418375;28;20041;-61
2021/06/06 20:13:32;;;;;;;6.95;3.80;;;22.10;63.80;;;;;;10417997;28;20057;-61
2021/06/06 20:18:33;;;;;;;3.90;3.30;;;22.10;63.80;;;;;;10418118;28;20397;-61
2021/06/06 20:23:34;;;;;;;5.80;3.85;;;22.10;63.80;;;;;;10418661;28;20029;-61
2021/06/06 20:28:41;;;;;;;4.00;3.03;;;22.10;63.90;;;;;;10419061;28;20021;-61
2021/06/06 20:33:58;;;;;;;5.13;3.40;;;22.10;63.90;;;;;;10418849;28;20143;-61
2021/06/06 20:39:04;;;;;;;5.65;3.53;;;22.10;63.90;;;;;;10417517;28;20124;-61
2021/06/06 20:44:08;;;;;;;4.53;2.75;;;22.10;63.80;;;;;;10430503;28;20552;-61
2021/06/06 20:49:10;;;;;;;4.43;3.22;;;22.10;63.80;;;;;;10417961;28;20037;-61
2021/06/06 20:54:13;;;;;;;5.13;3.33;;;22.10;63.80;;;;;;10432765;28;20445;-61
2021/06/06 20:59:13;;;;;;;4.10;3.17;;;22.10;63.80;;;;;;10416571;28;20043;-61
2021/06/06 21:04:15;;;;;;;4.47;2.80;;;22.10;63.70;;;;;;10416490;28;20032;-61
2021/06/06 21:09:15;;;;;;;4.68;3.10;;;22.10;63.70;;;;;;10417568;28;20393;-60
2021/06/06 21:14:17;;;;;;;4.00;3.30;;;22.00;63.60;;;;;;10416239;28;20108;-61
2021/06/06 21:19:20;;;;;;;6.10;3.72;;;22.00;63.60;;;;;;10417034;28;20119;-61
2021/06/06 21:24:21;;;;;;;3.72;3.17;;;22.10;63.60;;;;;;10416614;28;20041;-61
2021/06/06 21:29:23;;;;;;;3.80;3.22;;;22.00;63.60;;;;;;10416407;28;20532;-61
2021/06/06 21:34:24;;;;;;;4.82;3.05;;;22.10;63.60;;;;;;10416414;28;20096;-61
2021/06/06 21:39:24;;;;;;;4.20;2.80;;;22.00;63.50;;;;;;10416055;28;20049;-61
2021/06/06 21:44:26;;;;;;;3.25;2.65;;;22.00;63.60;;;;;;10427502;28;20076;-61
2021/06/06 21:49:26;;;;;;;5.15;2.65;;;22.00;63.50;;;;;;10415882;28;20030;-61
2021/06/06 21:54:27;;;;;;;3.65;2.88;;;22.00;63.50;;;;;;10415156;28;20040;-61
2021/06/06 21:59:28;;;;;;;4.53;2.83;;;22.00;63.40;;;;;;10415518;28;20025;-60
2021/06/06 22:04:29;;;;;;;3.42;3.10;;;22.00;63.40;;;;;;10413801;28;20041;-61
2021/06/06 22:09:30;;;;;;;3.75;2.90;;;22.00;63.40;;;;;;10415111;28;20033;-61
2021/06/06 22:14:31;;;;;;;3.67;2.88;;;22.00;63.30;;;;;;10414697;28;20084;-61
2021/06/06 22:20:28;;;;;;;4.10;2.78;;;22.00;63.30;;;;;;10413670;28;20458;-61
2021/06/06 22:26:25;;;;;;;4.00;2.92;;;22.00;63.20;;;;;;10414366;28;20075;-61
2021/06/06 22:32:21;;;;;;;3.55;3.20;;;21.90;63.20;;;;;;10414281;28;20556;-61
2021/06/06 22:38:18;;;;;;;4.45;2.53;;;21.90;63.00;;;;;;10414306;28;20108;-61
2021/06/06 22:44:15;;;;;;;3.28;2.47;;;21.90;63.00;;;;;;10426499;28;20462;-61
2021/06/06 22:50:12;;;;;;;3.28;2.45;;;21.90;63.00;;;;;;10413914;28;20029;-61
2021/06/06 22:56:09;;;;;;;4.00;2.63;;;21.90;63.00;;;;;;10414236;28;20037;-61
2021/06/06 23:02:05;;;;;;;3.10;2.55;;;21.90;62.90;;;;;;10414060;28;20033;-61
2021/06/06 23:08:02;;;;;;;2.92;2.20;;;21.90;62.90;;;;;;10411125;28;20038;-61
2021/06/06 23:13:59;;;;;;;2.58;1.90;;;21.90;62.90;;;;;;10422120;28;20469;-61
2021/06/06 23:19:00;;;;;;;3.20;2.78;;;21.90;62.80;;;;;;10421952;28;20029;-61
2021/06/06 23:24:01;;;;;;;3.92;2.78;;;21.80;63.30;;;;;;10421421;28;20470;-61
2021/06/06 23:29:05;;;;;;;3.15;2.40;;;21.80;62.70;;;;;;10420260;28;20050;-61
2021/06/06 23:34:06;;;;;;;2.50;2.10;;;21.90;62.70;;;;;;10424583;28;20087;-61
2021/06/06 23:39:08;;;;;;;4.05;2.75;;;21.80;62.50;;;;;;10420852;28;20459;-61
2021/06/06 23:44:09;;;;;;;3.65;2.50;;;21.80;62.50;;;;;;10431439;28;20029;-61
2021/06/06 23:49:10;;;;;;;3.22;2.67;;;21.80;62.40;;;;;;10420750;28;20029;-61
2021/06/06 23:54:13;;;;;;;3.17;2.20;;;21.80;62.40;;;;;;10420385;28;20025;-61
2021/06/06 23:59:14;;;;;;;3.35;2.30;;;21.80;62.40;;;;;;10420463;28;20068;-61
